Time;durP1;ratioP1;P1;durP2;ratioP2;P2;SDS_P1;SDS_P2;PMS_P1;PMS_P2;Temp;Humidity;BMP_temperature;BMP_pressure;BME280_temperature;BME280_humidity;BME280_pressure;Samples;Min_cycle;Max_cycle;Signal;HPM_P1;HPM_P2
2021/04/09 00:04:51;;;;;;;68.03;29.70;;;;;;;-0.88;72.11;99453.02;239339;1200;23128;-75
2021/04/09 00:09:56;;;;;;;58.45;25.95;;;;;;;-0.90;72.60;99449.77;239544;1203;23168;-72
2021/04/09 00:14:59;;;;;;;61.60;24.67;;;;;;;-0.91;72.36;99457.86;239351;1199;23364;-72
2021/04/09 00:20:04;;;;;;;58.95;25.05;;;;;;;-0.95;72.07;99460.09;239282;1202;23289;-72
2021/04/09 00:25:09;;;;;;;55.65;24.60;;;;;;;-0.97;72.48;99469.97;239289;1199;23109;-73
2021/04/09 00:30:18;;;;;;;51.83;21.57;;;;;;;-0.98;72.26;99457.85;239580;1200;23129;-71
2021/04/09 00:35:21;;;;;;;49.27;21.07;;;;;;;-1.00;72.42;99454.59;239247;1200;23289;-72
2021/04/09 00:40:24;;;;;;;46.55;21.20;;;;;;;-1.01;72.61;99450.33;239097;1202;23145;-72
2021/04/09 00:45:27;;;;;;;49.35;21.90;;;;;;;-1.00;72.93;99451.16;239086;1198;23124;-72
2021/04/09 00:50:29;;;;;;;40.07;18.83;;;;;;;-1.06;72.46;99453.56;239279;1199;23110;-72
2021/04/09 00:55:32;;;;;;;41.83;18.13;;;;;;;-1.12;72.78;99443.83;239313;1199;23230;-72
2021/04/09 01:00:36;;;;;;;44.95;19.05;;;;;;;-1.15;72.36;99438.14;239258;1200;23178;-74
2021/04/09 01:05:38;;;;;;;33.50;14.95;;;;;;;-1.18;72.75;99435.91;239156;1202;23099;-73
2021/04/09 01:10:41;;;;;;;39.67;15.93;;;;;;;-1.23;72.69;99439.93;239083;1200;23138;-72
2021/04/09 01:15:44;;;;;;;38.80;16.40;;;;;;;-1.27;72.75;99436.06;239338;1202;23158;-72
2021/04/09 01:20:56;;;;;;;42.70;16.07;;;;;;;-1.28;73.14;99438.89;239352;1199;23135;-71
2021/04/09 01:26:30;;;;;;;35.60;15.00;;;;;;;-1.29;73.33;99437.27;239269;1198;23122;-71
2021/04/09 01:31:47;;;;;;;30.53;13.93;;;;;;;-1.33;73.03;99436.86;239231;1199;23150;-72
2021/04/09 01:37:08;;;;;;;30.43;12.53;;;;;;;-1.40;72.94;99430.72;239089;1200;23247;-71
2021/04/09 01:42:12;;;;;;;30.05;12.95;;;;;;;-1.46;73.26;99429.69;239153;1200;23276;-71
2021/04/09 01:47:15;;;;;;;25.67;12.37;;;;;;;-1.47;73.01;99425.45;239169;1199;26039;-73
2021/04/09 01:52:18;;;;;;;30.50;13.45;;;;;;;-1.49;73.30;99416.94;239598;1199;23819;-72
2021/04/09 01:57:22;;;;;;;29.03;12.37;;;;;;;-1.50;73.32;99411.88;239387;1197;26355;-72
2021/04/09 02:02:25;;;;;;;27.30;12.33;;;;;;;-1.51;73.66;99410.25;239165;1199;23157;-72
2021/04/09 02:07:31;;;;;;;24.87;10.67;;;;;;;-1.50;73.42;99406.63;239136;1200;23115;-73
2021/04/09 02:12:35;;;;;;;24.60;11.20;;;;;;;-1.50;73.66;99409.25;239438;1200;23214;-73
2021/04/09 02:17:39;;;;;;;26.70;11.35;;;;;;;-1.51;73.59;99413.70;239325;1200;27237;-72
2021/04/09 02:22:44;;;;;;;24.60;12.50;;;;;;;-1.53;73.27;99407.02;239278;1199;23144;-72
2021/04/09 02:27:48;;;;;;;24.77;11.20;;;;;;;-1.56;73.34;99398.50;239186;1199;23256;-72
2021/04/09 02:32:51;;;;;;;21.80;10.60;;;;;;;-1.57;73.48;99402.16;239208;1199;23167;-71
2021/04/09 02:37:55;;;;;;;19.25;9.90;;;;;;;-1.58;73.65;99403.16;239171;1200;23145;-72
2021/04/09 02:42:58;;;;;;;20.03;9.93;;;;;;;-1.61;73.60;99390.41;239194;1202;23127;-71
2021/04/09 02:48:02;;;;;;;20.35;10.70;;;;;;;-1.60;73.79;99396.46;239146;1200;23127;-71
2021/04/09 02:53:15;;;;;;;21.70;11.40;;;;;;;-1.63;73.52;99389.77;239361;1197;26083;-73
2021/04/09 02:58:20;;;;;;;25.00;11.90;;;;;;;-1.63;73.74;99392.40;239387;1200;23118;-72
2021/04/09 03:03:23;;;;;;;28.90;12.70;;;;;;;-1.66;73.61;99387.53;239429;1199;23250;-72
2021/04/09 03:08:26;;;;;;;28.37;12.90;;;;;;;-1.69;73.76;99385.30;239294;1199;23134;-71
2021/04/09 03:13:30;;;;;;;27.70;12.20;;;;;;;-1.70;73.83;99385.50;239156;1200;23250;-73
2021/04/09 03:18:40;;;;;;;25.23;10.13;;;;;;;-1.73;74.06;99382.23;239168;1199;23131;-72
2021/04/09 03:23:43;;;;;;;27.93;12.97;;;;;;;-1.77;73.63;99380.20;239398;1202;26237;-72
2021/04/09 03:28:45;;;;;;;28.90;12.80;;;;;;;-1.76;74.03;99381.83;239189;1198;23122;-72
2021/04/09 03:33:48;;;;;;;25.00;10.35;;;;;;;-1.78;74.14;99384.63;239155;1200;23148;-72
2021/04/09 03:38:51;;;;;;;21.25;11.30;;;;;;;-1.78;74.07;99381.20;239429;1198;24558;-72
2021/04/09 03:43:54;;;;;;;27.65;11.75;;;;;;;-1.79;74.13;99372.52;239435;1199;23118;-72
2021/04/09 03:48:58;;;;;;;19.83;9.80;;;;;;;-1.79;74.23;99369.05;239327;1200;23119;-73
2021/04/09 03:54:00;;;;;;;23.40;11.70;;;;;;;-1.78;74.04;99374.11;239519;1200;23108;-72
2021/04/09 03:59:03;;;;;;;22.35;11.30;;;;;;;-1.76;74.49;99372.13;239421;1198;23157;-72
2021/04/09 04:04:06;;;;;;;27.35;13.90;;;;;;;-1.77;74.24;99378.38;239507;1200;23331;-72
2021/04/09 04:09:08;;;;;;;28.10;13.30;;;;;;;-1.75;74.60;99379.00;239327;1202;26029;-71
2021/04/09 04:14:11;;;;;;;26.80;12.30;;;;;;;-1.76;74.87;99376.58;239261;1200;23285;-72
2021/04/09 04:19:15;;;;;;;32.73;16.73;;;;;;;-1.75;74.62;99379.00;239446;1200;23134;-73
2021/04/09 04:24:18;;;;;;;33.20;13.50;;;;;;;-1.70;74.78;99365.28;239526;1198;23237;-72
2021/04/09 04:29:21;;;;;;;30.20;12.83;;;;;;;-1.66;74.53;99366.52;239029;1200;23114;-71
2021/04/09 04:34:23;;;;;;;24.40;13.20;;;;;;;-1.60;74.70;99359.67;239283;1200;23259;-72
2021/04/09 04:39:26;;;;;;;34.90;15.70;;;;;;;-1.52;74.85;99369.23;239324;1199;23172;-72
2021/04/09 04:44:28;;;;;;;28.55;13.40;;;;;;;-1.44;74.85;99354.10;239031;1198;23132;-72
2021/04/09 04:49:32;;;;;;;28.70;14.20;;;;;;;-1.34;74.90;99359.00;239106;1202;23583;-72
2021/04/09 04:54:35;;;;;;;28.10;15.00;;;;;;;-1.25;74.68;99363.05;239390;1200;26243;-72
2021/04/09 04:59:38;;;;;;;30.30;13.60;;;;;;;-1.12;74.71;99354.43;239365;1200;23090;-72
2021/04/09 05:04:41;;;;;;;22.73;11.73;;;;;;;-0.99;74.61;99352.82;239376;1199;23176;-72
2021/04/09 05:09:43;;;;;;;22.80;11.50;;;;;;;-0.87;74.45;99359.95;239244;1199;23135;-72
2021/04/09 05:14:46;;;;;;;21.60;11.70;;;;;;;-0.75;74.44;99364.63;239156;1200;23158;-74
2021/04/09 05:19:49;;;;;;;22.90;12.05;;;;;;;-0.60;74.75;99356.54;239115;1200;23198;-72
2021/04/09 05:24:51;;;;;;;29.47;14.57;;;;;;;-0.46;74.25;99349.46;239239;1199;26898;-72
2021/04/09 05:29:54;;;;;;;27.60;12.60;;;;;;;-0.35;73.88;99354.95;239072;1201;23149;-72
2021/04/09 05:34:57;;;;;;;29.10;13.80;;;;;;;-0.19;73.93;99347.66;239093;1198;23110;-73
2021/04/09 05:39:59;;;;;;;26.45;13.30;;;;;;;-0.02;73.56;99340.13;239163;1198;23120;-73
2021/04/09 05:45:04;;;;;;;26.05;12.45;;;;;;;0.16;73.54;99344.77;239587;1200;23273;-72
2021/04/09 05:50:07;;;;;;;23.90;11.00;;;;;;;0.32;72.98;99344.33;239529;1199;26363;-73
2021/04/09 05:55:10;;;;;;;30.07;13.60;;;;;;;0.46;73.38;99345.10;239938;1199;23131;-71
2021/04/09 06:00:14;;;;;;;23.67;12.90;;;;;;;0.67;72.89;99343.17;240447;1199;23130;-70
2021/04/09 06:05:17;;;;;;;22.23;11.70;;;;;;;0.89;72.63;99340.25;240900;1199;23142;-70
2021/04/09 06:10:20;;;;;;;22.40;10.95;;;;;;;1.09;72.60;99334.86;240023;1198;25661;-70
2021/04/09 06:15:23;;;;;;;21.30;11.50;;;;;;;1.29;72.47;99324.19;240359;1197;23121;-71
2021/04/09 06:20:25;;;;;;;22.75;11.30;;;;;;;1.46;71.88;99319.98;240420;1200;23119;-71
2021/04/09 06:25:28;;;;;;;18.35;10.55;;;;;;;1.66;71.54;99317.17;239910;1200;23121;-72
2021/04/09 06:30:31;;;;;;;23.30;11.50;;;;;;;1.84;70.38;99310.33;239303;1199;23159;-73
2021/04/09 06:35:34;;;;;;;19.93;9.97;;;;;;;2.02;69.85;99314.83;239258;1203;23275;-70
2021/04/09 06:40:36;;;;;;;20.73;10.20;;;;;;;2.20;70.16;99314.04;239381;1197;23141;-72
2021/04/09 06:45:39;;;;;;;19.10;9.40;;;;;;;2.38;68.07;99303.45;239345;1200;23186;-72
2021/04/09 06:50:43;;;;;;;13.03;7.40;;;;;;;2.54;67.18;99299.39;240319;1199;23153;-73
2021/04/09 06:55:46;;;;;;;15.20;6.95;;;;;;;2.70;65.99;99299.80;239574;1198;23192;-71
2021/04/09 07:00:57;;;;;;;10.60;5.53;;;;;;;2.90;65.15;99305.64;239824;1199;23237;-70
2021/04/09 07:05:59;;;;;;;14.18;7.08;;;;;;;3.11;65.60;99302.73;239613;1199;23131;-71
2021/04/09 07:11:04;;;;;;;14.47;7.50;;;;;;;3.30;64.62;99300.80;239504;1200;23115;-70
2021/04/09 07:16:10;;;;;;;10.80;5.10;;;;;;;3.48;62.52;99294.62;239798;1200;23272;-72
2021/04/09 07:21:28;;;;;;;8.90;5.50;;;;;;;3.63;61.03;99292.33;239221;1202;23169;-71
2021/04/09 07:26:48;;;;;;;14.20;5.10;;;;;;;3.85;61.50;99283.81;239505;1199;23140;-71
2021/04/09 07:31:50;;;;;;;12.00;5.10;;;;;;;4.07;60.49;99279.52;239787;1196;23263;-70
2021/04/09 07:36:56;;;;;;;8.70;5.20;;;;;;;4.27;59.87;99287.09;239682;1197;23161;-71
2021/04/09 07:42:10;;;;;;;11.50;5.40;;;;;;;4.40;57.30;99286.01;239506;1200;23133;-71
2021/04/09 07:47:15;;;;;;;12.15;5.95;;;;;;;4.49;56.60;99275.03;239351;1202;23125;-72
2021/04/09 07:52:18;;;;;;;10.00;6.10;;;;;;;4.65;57.77;99268.98;239411;1199;23101;-72
2021/04/09 07:57:29;;;;;;;6.63;4.13;;;;;;;4.82;54.36;99279.64;239559;1200;23094;-71
2021/04/09 08:02:38;;;;;;;6.97;4.80;;;;;;;4.93;53.57;99251.43;239358;1200;27198;-72
2021/04/09 08:07:42;;;;;;;9.20;5.43;;;;;;;5.14;56.10;99248.06;239252;1200;23169;-70
2021/04/09 08:12:51;;;;;;;6.10;3.80;;;;;;;5.29;51.85;99255.48;239299;1198;23110;-71
2021/04/09 08:18:09;;;;;;;7.10;4.80;;;;;;;5.37;52.59;99266.74;239445;1200;23140;-72
2021/04/09 08:23:14;;;;;;;5.87;3.60;;;;;;;5.43;50.90;99242.67;239553;1199;26175;-71
2021/04/09 08:28:17;;;;;;;4.90;3.30;;;;;;;5.64;51.86;99232.35;239313;1201;23101;-72
2021/04/09 08:33:20;;;;;;;5.80;3.30;;;;;;;5.85;51.19;99241.41;239101;1197;23134;-70
2021/04/09 08:38:23;;;;;;;4.40;3.03;;;;;;;6.06;49.55;99239.02;238663;1201;23134;-72
2021/04/09 08:43:26;;;;;;;3.80;3.00;;;;;;;6.26;50.49;99218.00;239259;1200;23141;-71
2021/04/09 08:48:32;;;;;;;4.40;3.10;;;;;;;6.52;50.20;99212.97;239268;1199;23118;-71
2021/04/09 08:53:35;;;;;;;5.60;3.55;;;;;;;6.70;50.47;99210.99;239404;1199;26264;-72
2021/04/09 08:58:47;;;;;;;6.50;3.80;;;;;;;6.90;49.29;99195.21;239514;1196;23112;-71
2021/04/09 09:03:50;;;;;;;4.90;2.77;;;;;;;7.15;46.89;99191.95;239399;1199;23173;-71
2021/04/09 09:08:53;;;;;;;7.07;3.40;;;;;;;7.32;49.58;99169.68;239309;1196;23264;-72
2021/04/09 09:13:55;;;;;;;4.30;2.60;;;;;;;7.42;44.11;99180.39;239577;1200;26904;-73
2021/04/09 09:18:58;;;;;;;4.00;2.47;;;;;;;7.44;42.68;99167.59;239721;1199;23330;-72
2021/04/09 09:24:05;;;;;;;4.35;2.55;;;;;;;7.66;45.26;99162.13;239718;1200;23279;-72
2021/04/09 09:29:26;;;;;;;3.57;2.60;;;;;;;7.77;41.21;99164.86;239884;1198;23783;-71
2021/04/09 09:34:32;;;;;;;5.30;3.10;;;;;;;7.94;41.73;99138.77;239720;1200;23263;-71
2021/04/09 09:39:36;;;;;;;4.30;2.60;;;;;;;8.16;44.28;99145.78;239618;1196;23122;-72
2021/04/09 09:44:39;;;;;;;3.50;2.97;;;;;;;8.39;43.48;99134.63;239417;1197;23094;-70
2021/04/09 09:50:01;;;;;;;5.75;2.90;;;;;;;8.58;42.34;99133.31;239919;1202;23294;-71
2021/04/09 09:55:37;;;;;;;5.03;3.27;;;;;;;8.57;41.15;99135.20;239490;1200;23121;-72
2021/04/09 10:01:01;;;;;;;11.60;3.10;;;;;;;8.53;39.62;99131.45;239380;1199;23272;-71
2021/04/09 10:06:10;;;;;;;6.77;2.50;;;;;;;8.66;37.48;99111.42;239842;1199;23122;-71
2021/04/09 10:11:33;;;;;;;8.03;3.37;;;;;;;8.78;41.01;99113.84;240056;1200;23169;-71
2021/04/09 10:16:35;;;;;;;5.90;3.77;;;;;;;8.88;38.99;99124.52;240091;1200;23931;-71
2021/04/09 10:21:41;;;;;;;5.60;2.70;;;;;;;8.97;38.25;99114.90;240876;1200;23121;-73
2021/04/09 10:27:02;;;;;;;3.80;3.10;;;;;;;9.16;39.50;99087.59;239525;1200;23144;-72
2021/04/09 10:32:14;;;;;;;3.85;2.85;;;;;;;9.27;38.91;99089.17;239651;1200;23118;-74
2021/04/09 10:37:22;;;;;;;6.87;3.03;;;;;;;9.32;36.52;99110.55;239358;1200;23261;-72
2021/04/09 10:42:25;;;;;;;3.80;2.70;;;;;;;9.42;37.35;99097.14;239369;1200;27166;-73
2021/04/09 10:47:30;;;;;;;5.45;3.40;;;;;;;9.51;38.66;99093.91;239307;1200;23166;-73
2021/04/09 10:52:33;;;;;;;5.07;3.33;;;;;;;9.73;39.29;99091.67;239829;1199;23144;-73
2021/04/09 10:57:36;;;;;;;4.20;3.33;;;;;;;9.72;37.19;99098.13;239278;1198;23131;-72
2021/04/09 11:02:39;;;;;;;6.73;3.87;;;;;;;9.85;39.65;99071.81;239238;1199;23125;-71
2021/04/09 11:07:45;;;;;;;6.95;4.20;;;;;;;9.94;38.92;99078.20;239264;1199;23106;-72
2021/04/09 11:13:06;;;;;;;4.80;3.25;;;;;;;10.04;37.84;99046.01;239439;1200;23148;-72
2021/04/09 11:18:10;;;;;;;4.70;3.70;;;;;;;10.21;38.31;99055.54;239484;1199;23121;-72
2021/04/09 11:23:15;;;;;;;4.30;3.57;;;;;;;10.24;37.45;99049.63;239390;1199;23140;-71
2021/04/09 11:28:29;;;;;;;6.30;3.95;;;;;;;10.39;36.81;99041.50;239350;1199;23115;-72
2021/04/09 11:33:42;;;;;;;4.60;3.80;;;;;;;10.52;38.26;99040.08;239395;1199;23273;-72
2021/04/09 11:38:48;;;;;;;6.43;3.57;;;;;;;10.64;37.19;99026.30;239383;1200;23275;-71
2021/04/09 11:43:51;;;;;;;5.90;3.10;;;;;;;10.59;34.49;99037.88;239400;1200;23158;-72
2021/04/09 11:49:02;;;;;;;4.50;3.25;;;;;;;10.59;35.39;99024.48;239237;1200;23264;-70
2021/04/09 11:54:06;;;;;;;7.13;3.63;;;;;;;10.63;35.80;99018.55;239525;1197;27105;-71
2021/04/09 11:59:13;;;;;;;12.40;4.07;;;;;;;10.65;36.27;99011.83;239249;1199;27339;-72
2021/04/09 12:04:36;;;;;;;6.80;3.80;;;;;;;10.87;35.60;98999.81;239492;1199;23128;-70
2021/04/09 12:09:42;;;;;;;7.20;3.50;;;;;;;11.04;35.20;98999.35;239711;1199;23121;-72
2021/04/09 12:14:47;;;;;;;5.50;3.70;;;;;;;10.99;35.39;98994.86;239465;1200;23114;-71
2021/04/09 12:19:54;;;;;;;5.30;3.75;;;;;;;11.07;36.72;98982.72;239462;1200;23130;-72
2021/04/09 12:24:58;;;;;;;5.20;3.90;;;;;;;11.27;37.17;98976.30;239955;1201;23211;-71
2021/04/09 12:30:01;;;;;;;6.55;3.70;;;;;;;11.51;35.16;98964.72;239224;1199;23115;-73
2021/04/09 12:35:06;;;;;;;7.13;3.73;;;;;;;11.53;34.48;98962.53;239298;1202;23308;-73
2021/04/09 12:40:09;;;;;;;5.60;4.10;;;;;;;11.49;35.16;98953.50;239720;1199;23103;-71
2021/04/09 12:45:13;;;;;;;7.30;3.80;;;;;;;11.52;34.97;98950.23;239801;1199;23201;-71
2021/04/09 12:50:15;;;;;;;6.80;4.30;;;;;;;11.57;34.60;98950.95;239582;1199;23212;-71
2021/04/09 12:55:18;;;;;;;5.23;3.83;;;;;;;11.60;35.66;98939.64;239548;1199;23116;-72
2021/04/09 13:00:21;;;;;;;5.83;3.83;;;;;;;11.69;32.80;98936.30;239420;1198;23176;-72
2021/04/09 13:05:23;;;;;;;4.63;3.93;;;;;;;11.61;35.03;98929.69;239634;1200;23340;-71
2021/04/09 13:10:26;;;;;;;4.57;3.63;;;;;;;11.60;33.77;98904.76;239430;1198;26239;-73
2021/04/09 13:15:28;;;;;;;6.90;4.60;;;;;;;11.65;34.24;98911.92;239385;1198;23125;-72
2021/04/09 13:20:31;;;;;;;5.50;3.90;;;;;;;11.79;33.80;98906.61;239568;1200;23145;-72
2021/04/09 13:25:33;;;;;;;7.07;4.10;;;;;;;11.85;34.85;98912.69;239239;1199;23165;-72
2021/04/09 13:30:37;;;;;;;5.25;3.70;;;;;;;11.80;33.60;98898.27;239333;1200;23118;-72
2021/04/09 13:35:39;;;;;;;8.45;5.10;;;;;;;12.02;35.13;98901.44;239567;1202;23122;-71
2021/04/09 13:40:42;;;;;;;6.85;4.15;;;;;;;12.14;34.18;98891.84;239219;1200;23131;-70
2021/04/09 13:45:47;;;;;;;6.60;4.57;;;;;;;12.11;34.96;98886.25;239529;1199;23288;-70
2021/04/09 13:50:50;;;;;;;6.40;4.35;;;;;;;12.01;34.28;98886.44;240108;1198;23164;-70
2021/04/09 13:55:53;;;;;;;4.25;3.50;;;;;;;11.97;33.88;98887.00;239789;1200;23127;-69
2021/04/09 14:00:56;;;;;;;6.20;3.95;;;;;;;12.06;34.94;98870.22;237557;1200;23112;-70
2021/04/09 14:05:59;;;;;;;6.30;4.00;;;;;;;12.17;35.91;98860.11;238672;1200;23134;-69
2021/04/09 14:11:02;;;;;;;6.20;3.90;;;;;;;12.24;34.94;98861.32;237778;1200;23149;-69
2021/04/09 14:16:05;;;;;;;7.10;3.80;;;;;;;12.23;33.73;98853.56;239160;1202;23122;-69
2021/04/09 14:21:08;;;;;;;5.30;3.80;;;;;;;12.23;34.61;98851.66;239332;1200;23130;-69
2021/04/09 14:26:10;;;;;;;6.47;4.47;;;;;;;12.40;34.70;98844.91;238302;1202;23122;-72
2021/04/09 14:31:13;;;;;;;5.80;4.00;;;;;;;12.40;33.71;98828.80;238495;1200;25551;-69
2021/04/09 14:36:16;;;;;;;4.65;3.90;;;;;;;12.24;34.11;98829.09;238819;1199;23099;-68
2021/04/09 14:41:19;;;;;;;7.05;4.00;;;;;;;12.27;35.71;98827.67;238932;1202;23279;-72
2021/04/09 14:46:22;;;;;;;9.77;4.93;;;;;;;12.31;34.26;98831.36;238610;1199;23093;-69
2021/04/09 14:51:25;;;;;;;7.10;4.70;;;;;;;12.23;33.91;98822.12;238569;1200;23115;-70
2021/04/09 14:56:30;;;;;;;6.30;4.60;;;;;;;12.06;34.78;98830.77;238882;1198;23125;-70
2021/04/09 15:01:32;;;;;;;5.85;4.40;;;;;;;11.96;35.50;98821.00;238870;1200;23118;-70
2021/04/09 15:06:35;;;;;;;6.90;4.25;;;;;;;11.86;34.42;98823.03;238740;1200;23122;-70
2021/04/09 15:11:38;;;;;;;6.85;4.10;;;;;;;11.71;35.52;98808.80;238795;1199;23321;-70
2021/04/09 15:16:41;;;;;;;6.70;4.20;;;;;;;11.66;36.06;98802.72;238500;1200;23125;-69
2021/04/09 15:21:43;;;;;;;5.55;4.10;;;;;;;11.56;35.19;98788.38;238401;1202;23121;-71
2021/04/09 15:26:46;;;;;;;6.27;4.20;;;;;;;11.50;35.99;98784.20;238493;1197;23208;-70
2021/04/09 15:31:48;;;;;;;7.10;4.50;;;;;;;11.47;35.83;98796.31;238538;1200;23138;-69
2021/04/09 15:36:51;;;;;;;5.70;4.20;;;;;;;11.49;36.33;98790.65;238904;1199;27217;-69
2021/04/09 15:41:54;;;;;;;5.40;4.07;;;;;;;11.53;36.25;98788.98;238470;1200;23276;-70
2021/04/09 15:46:57;;;;;;;7.23;4.40;;;;;;;11.60;36.39;98784.02;239234;1202;23269;-70
2021/04/09 15:52:02;;;;;;;5.85;4.45;;;;;;;11.67;36.60;98783.64;238789;1200;23144;-70
2021/04/09 15:57:06;;;;;;;7.20;4.70;;;;;;;11.70;36.54;98772.31;238451;1200;23116;-74
2021/04/09 16:02:08;;;;;;;8.60;4.60;;;;;;;11.67;36.76;98772.91;238630;1202;23140;-70
2021/04/09 16:07:11;;;;;;;9.27;4.17;;;;;;;11.61;35.27;98766.02;238525;1200;23574;-69
2021/04/09 16:12:14;;;;;;;7.90;4.13;;;;;;;11.49;35.42;98766.51;238656;1199;23150;-70
2021/04/09 16:17:17;;;;;;;6.40;4.40;;;;;;;11.44;34.96;98755.86;238505;1200;23125;-71
2021/04/09 16:22:20;;;;;;;9.63;4.93;;;;;;;11.49;35.86;98768.41;238534;1200;23271;-70
2021/04/09 16:27:22;;;;;;;8.75;4.45;;;;;;;11.52;35.51;98762.45;238756;1202;23118;-70
2021/04/09 16:32:25;;;;;;;8.47;4.83;;;;;;;11.49;35.92;98750.41;238711;1200;23257;-69
2021/04/09 16:37:28;;;;;;;8.77;5.47;;;;;;;11.35;36.38;98745.02;238714;1198;23117;-69
2021/04/09 16:42:30;;;;;;;7.55;4.40;;;;;;;11.16;36.92;98738.89;238616;1200;23257;-69
2021/04/09 16:47:35;;;;;;;8.90;5.60;;;;;;;10.93;37.12;98742.17;238693;1200;23338;-70
2021/04/09 16:52:38;;;;;;;9.60;5.60;;;;;;;10.73;36.83;98748.64;239101;1198;23248;-69
2021/04/09 16:57:41;;;;;;;7.95;4.80;;;;;;;10.56;36.27;98757.18;238673;1200;23138;-69
2021/04/09 17:02:44;;;;;;;7.10;4.70;;;;;;;10.40;36.80;98743.17;238636;1200;23196;-70
2021/04/09 17:07:46;;;;;;;7.00;4.90;;;;;;;10.24;37.77;98739.06;238772;1199;22960;-69
2021/04/09 17:12:49;;;;;;;9.40;5.20;;;;;;;10.07;37.17;98728.83;238384;1200;23144;-70
2021/04/09 17:17:53;;;;;;;9.97;5.50;;;;;;;9.96;38.14;98724.67;238571;1200;23147;-70
2021/04/09 17:22:56;;;;;;;14.30;7.30;;;;;;;9.81;38.85;98721.09;238516;1200;23288;-69
2021/04/09 17:27:58;;;;;;;12.70;7.80;;;;;;;9.61;38.86;98719.41;238684;1198;23118;-71
2021/04/09 17:33:01;;;;;;;12.55;6.80;;;;;;;9.45;39.26;98717.99;238468;1198;23145;-69
2021/04/09 17:38:23;;;;;;;14.20;6.83;;;;;;;9.34;39.63;98718.06;238477;1200;24905;-70
2021/04/09 17:43:26;;;;;;;15.33;7.60;;;;;;;9.24;39.68;98716.28;238622;1200;23349;-69
2021/04/09 17:48:29;;;;;;;11.85;7.30;;;;;;;9.15;39.93;98720.66;238888;1200;23374;-69
2021/04/09 17:53:33;;;;;;;13.80;7.10;;;;;;;9.07;40.04;98724.70;238564;1199;23145;-70
2021/04/09 17:58:35;;;;;;;13.80;7.10;;;;;;;9.01;39.91;98730.36;238529;1200;23293;-69
2021/04/09 18:03:39;;;;;;;14.00;7.00;;;;;;;8.89;40.42;98728.84;238764;1202;23260;-70
2021/04/09 18:08:51;;;;;;;11.87;7.27;;;;;;;8.74;40.95;98723.61;238539;1199;25963;-69
2021/04/09 18:13:53;;;;;;;15.20;8.50;;;;;;;8.62;41.31;98728.48;238660;1199;23118;-70
2021/04/09 18:18:56;;;;;;;16.55;8.20;;;;;;;8.51;41.21;98733.11;238510;1199;23416;-69
2021/04/09 18:24:01;;;;;;;19.45;9.65;;;;;;;8.34;41.39;98733.44;238472;1200;23138;-70
2021/04/09 18:29:04;;;;;;;20.60;10.50;;;;;;;8.19;42.12;98729.73;238715;1201;23154;-70
2021/04/09 18:34:06;;;;;;;24.95;10.95;;;;;;;8.09;42.49;98726.34;238535;1200;23127;-70
2021/04/09 18:39:14;;;;;;;19.43;11.10;;;;;;;7.95;42.42;98728.78;238683;1202;23134;-70
2021/04/09 18:44:17;;;;;;;19.43;9.60;;;;;;;7.81;42.67;98728.55;238503;1200;23192;-69
2021/04/09 18:49:21;;;;;;;21.30;9.80;;;;;;;7.74;42.67;98720.02;238532;1202;23122;-70
2021/04/09 18:54:25;;;;;;;20.90;11.10;;;;;;;7.65;43.71;98719.78;238627;1200;23125;-70
2021/04/09 18:59:28;;;;;;;22.37;12.00;;;;;;;7.57;43.63;98710.48;238503;1200;23262;-71
2021/04/09 19:04:33;;;;;;;23.70;11.80;;;;;;;7.48;43.88;98706.75;238865;1201;23125;-69
2021/04/09 19:09:37;;;;;;;21.65;11.50;;;;;;;7.41;44.23;98700.91;238785;1200;23134;-69
2021/04/09 19:14:39;;;;;;;18.93;10.67;;;;;;;7.26;43.80;98699.86;238951;1200;23292;-71
2021/04/09 19:19:44;;;;;;;22.57;12.17;;;;;;;7.11;44.65;98697.21;238791;1200;23129;-69
2021/04/09 19:24:48;;;;;;;28.90;12.75;;;;;;;6.96;44.59;98693.46;238583;1198;23122;-69
2021/04/09 19:29:50;;;;;;;24.33;12.53;;;;;;;6.82;44.80;98693.19;238727;1200;25975;-69
2021/04/09 19:34:53;;;;;;;24.55;11.60;;;;;;;6.70;44.93;98699.84;238694;1198;23128;-68
2021/04/09 19:39:55;;;;;;;22.67;12.07;;;;;;;6.62;45.22;98693.19;238364;1200;23087;-69
2021/04/09 19:44:58;;;;;;;25.07;12.80;;;;;;;6.54;45.73;98694.49;238684;1200;23144;-70
2021/04/09 19:50:01;;;;;;;25.43;13.37;;;;;;;6.47;45.82;98696.61;238778;1199;23277;-69
2021/04/09 19:55:07;;;;;;;26.57;13.40;;;;;;;6.41;46.11;98693.14;238490;1202;23137;-69
2021/04/09 20:00:13;;;;;;;25.90;13.70;;;;;;;6.34;45.85;98682.73;238459;1202;23138;-70
2021/04/09 20:05:16;;;;;;;30.40;14.27;;;;;;;6.30;46.57;98688.86;238674;1200;23114;-69
2021/04/09 20:10:19;;;;;;;28.07;13.57;;;;;;;6.25;46.68;98686.96;238625;1199;23121;-69
2021/04/09 20:15:22;;;;;;;26.80;13.75;;;;;;;6.23;46.61;98696.29;238562;1200;23151;-70
2021/04/09 20:20:25;;;;;;;25.47;12.47;;;;;;;6.21;46.73;98691.23;238604;1200;23134;-70
2021/04/09 20:25:28;;;;;;;31.50;14.25;;;;;;;6.21;46.91;98685.91;238692;1200;26076;-69
2021/04/09 20:30:31;;;;;;;32.40;14.30;;;;;;;6.21;46.96;98683.25;238326;1202;23131;-70
2021/04/09 20:35:34;;;;;;;31.63;14.50;;;;;;;6.20;47.20;98680.83;238572;1200;23115;-70
2021/04/09 20:40:36;;;;;;;27.75;15.10;;;;;;;6.21;47.36;98682.44;238602;1202;23121;-69
2021/04/09 20:45:39;;;;;;;28.70;14.45;;;;;;;6.22;47.18;98681.38;238900;1200;23125;-70
2021/04/09 20:50:42;;;;;;;34.50;15.40;;;;;;;6.22;47.37;98676.06;238718;1199;23140;-69
2021/04/09 20:55:44;;;;;;;30.60;14.87;;;;;;;6.19;47.41;98679.25;238403;1200;23276;-71
2021/04/09 21:00:47;;;;;;;34.60;15.00;;;;;;;6.14;47.68;98680.83;238413;1200;23225;-70
2021/04/09 21:05:49;;;;;;;33.70;15.30;;;;;;;6.13;47.73;98689.08;238741;1202;23647;-70
2021/04/09 21:10:52;;;;;;;35.17;16.47;;;;;;;6.08;48.02;98691.70;238659;1199;23267;-70
2021/04/09 21:15:55;;;;;;;35.45;17.50;;;;;;;6.03;47.83;98689.84;238764;1200;23137;-69
2021/04/09 21:20:57;;;;;;;41.60;18.00;;;;;;;5.98;47.80;98690.59;238763;1199;23118;-70
2021/04/09 21:26:02;;;;;;;38.40;17.60;;;;;;;5.95;48.43;98682.33;238642;1200;23152;-69
2021/04/09 21:31:05;;;;;;;35.60;15.63;;;;;;;5.90;48.44;98677.77;238732;1202;24555;-70
2021/04/09 21:36:08;;;;;;;33.20;15.25;;;;;;;5.83;48.55;98677.20;238706;1202;23124;-70
2021/04/09 21:41:11;;;;;;;29.67;14.53;;;;;;;5.77;48.47;98670.28;238457;1200;23131;-69
2021/04/09 21:46:14;;;;;;;24.50;12.43;;;;;;;5.70;48.32;98667.06;238613;1200;23148;-70
2021/04/09 21:51:17;;;;;;;24.20;12.30;;;;;;;5.64;48.81;98666.24;238588;1200;23134;-69
2021/04/09 21:56:20;;;;;;;26.80;12.75;;;;;;;5.57;48.89;98663.81;238598;1200;23114;-69
2021/04/09 22:01:23;;;;;;;23.67;12.00;;;;;;;5.48;49.16;98646.74;238420;1199;23253;-69
2021/04/09 22:06:26;;;;;;;26.35;12.10;;;;;;;5.41;49.39;98641.66;238442;1200;23118;-69
2021/04/09 22:11:28;;;;;;;22.85;10.60;;;;;;;5.35;49.47;98642.69;238462;1200;23125;-71
2021/04/09 22:16:30;;;;;;;20.87;10.33;;;;;;;5.29;49.42;98638.42;238353;1200;23169;-70
2021/04/09 22:21:34;;;;;;;23.73;10.20;;;;;;;5.24;49.39;98636.52;238726;1199;23142;-69
2021/04/09 22:26:37;;;;;;;21.55;9.40;;;;;;;5.23;49.35;98634.94;238662;1200;23131;-69
2021/04/09 22:31:44;;;;;;;19.95;8.80;;;;;;;5.20;49.61;98626.67;238528;1199;23253;-70
2021/04/09 22:36:46;;;;;;;17.75;9.50;;;;;;;5.19;49.70;98633.02;238502;1199;23145;-69
2021/04/09 22:41:50;;;;;;;17.07;8.73;;;;;;;5.17;49.89;98638.59;238440;1199;23176;-70
2021/04/09 22:46:52;;;;;;;15.33;7.67;;;;;;;5.18;50.06;98655.34;238728;1199;23121;-70
2021/04/09 22:51:55;;;;;;;17.53;9.10;;;;;;;5.29;50.46;98651.70;238415;1198;23125;-70
2021/04/09 22:56:58;;;;;;;17.47;9.90;;;;;;;5.25;49.89;98651.41;238666;1200;23134;-70
2021/04/09 23:02:00;;;;;;;18.00;8.65;;;;;;;5.13;50.04;98648.95;238771;1200;23286;-70
2021/04/09 23:07:04;;;;;;;16.67;8.70;;;;;;;5.02;50.00;98641.94;238681;1197;23143;-70
2021/04/09 23:12:07;;;;;;;17.35;9.20;;;;;;;4.89;50.30;98640.52;238856;1199;23578;-70
2021/04/09 23:17:10;;;;;;;18.30;8.10;;;;;;;4.78;50.60;98641.50;238944;1200;26035;-69
2021/04/09 23:22:13;;;;;;;15.35;8.20;;;;;;;4.69;50.67;98641.17;238607;1200;23172;-69
2021/04/09 23:27:18;;;;;;;16.20;8.00;;;;;;;4.62;51.14;98638.72;238657;1200;23337;-69
2021/04/09 23:32:20;;;;;;;19.27;9.10;;;;;;;4.60;51.04;98635.53;238407;1200;24593;-70